• Join FlightAware (Why Join?)
  • Login
  • US Flag GB Flag 
20:33 EST


 

Airport Tracker/Info


-or-


 

Live Flight TrackerFlight Track Log ✈ ASQ6151 ✈ 02-May-2013 ✈ KORD - KPIA

Flight Track Log - Related Links

Times and Time Zones

All times are in EDT time to prevent confusion due to time zone crossing. See the ASQ6151 flight status page for this flight to view local times or setup timezone preferences in your user account.

Time Position Orientation Groundspeed Altitude Reporting Facility
EDT Latitude Longitude Course Direction KTS MPH feet Rate Location/Type
22:42 41.9260 -88.9073 217° Southwest  Level FlightAware Approximate
22:43 41.8473 -88.9814 213° Southwest  Level FlightAware Approximate
22:44 41.7665 -89.0515 213° Southwest  Level FlightAware Approximate
22:45 41.6858 -89.1214 213° Southwest  Level FlightAware Approximate
22:46 41.6047 -89.1906 212° Southwest  Level FlightAware Approximate
22:47 41.5236 -89.2597 217° Southwest  Level FlightAware Approximate
22:48 41.4431 -89.3298 213° Southwest  Level FlightAware Approximate
22:49 41.3625 -89.3996 210° Southwest  Level FlightAware Approximate
22:50 41.2794 -89.4642 210° Southwest  Level FlightAware Approximate
22:51 41.1992 -89.5342 217° Southwest  Level FlightAware Approximate
22:52 41.1155 -89.5883 186° South  Level FlightAware Approximate
22:53 41.0226 -89.6108 217° Southwest  Level FlightAware Approximate
22:54 40.9283 -89.6277 185° South  Level FlightAware Approximate
22:55 40.8338 -89.6498 194° South  Level FlightAware Approximate
22:56 40.7384 -89.6623 189° South  Level FlightAware Approximate
22:57 40.6642 -89.6933 191° South  Level Estimated
22:58 40.6642 -89.6933 191° South  Level Estimated
22:59 40.6642 -89.6933 191° South  Level Estimated
23:00 40.6642 -89.6933 191° South  Level Estimated
23:01 40.6642 -89.6933 191° South  Level Estimated
23:02 40.6642 -89.6933 191° South  Level Estimated
23:03 40.6642 -89.6933 191° South  Level Estimated
23:04 40.6642 -89.6933 191° South  Level Estimated
23:05 40.6642 -89.6933 191° South  Level Estimated
23:06 40.6642 -89.6933 191° South  Level Estimated
23:07 40.6642 -89.6933 191° South  Level Estimated
23:08 40.6642 -89.6933 191° South  Level Estimated
23:09 40.6642 -89.6933 191° South  Level Estimated
23:10 40.6642 -89.6933 191° South  Level Estimated
23:11 40.6642 -89.6933 191° South  Level Estimated
23:12 40.6642 -89.6933 191° South  Level Estimated
23:13 40.6642 -89.6933 191° South  Level Estimated